createdAt,value
2018-07-31T00:00:30.559Z,77.80
2018-07-31T00:02:59.668Z,78.00
2018-07-31T00:05:28.697Z,78.10
2018-07-31T00:07:57.744Z,78.10
2018-07-31T00:10:27.131Z,78.10
2018-07-31T00:12:56.154Z,78.20
2018-07-31T00:15:26.074Z,78.40
2018-07-31T00:17:55.070Z,78.60
2018-07-31T00:20:24.074Z,78.90
2018-07-31T00:22:53.372Z,79.30
2018-07-31T00:25:22.570Z,79.50
2018-07-31T00:27:51.672Z,79.50
2018-07-31T00:30:20.982Z,79.50
2018-07-31T00:32:50.037Z,79.40
2018-07-31T00:37:47.657Z,79.50
2018-07-31T00:40:16.758Z,79.40
2018-07-31T00:42:45.757Z,79.20
2018-07-31T00:45:14.957Z,79.30
2018-07-31T00:47:44.160Z,79.50
2018-07-31T00:50:13.090Z,79.60
2018-07-31T00:52:42.255Z,79.80
2018-07-31T00:55:11.356Z,80.10
2018-07-31T00:57:40.458Z,80.40
2018-07-31T01:00:09.808Z,80.80
2018-07-31T01:02:38.893Z,81.00
2018-07-31T01:05:07.960Z,81.30
2018-07-31T01:07:37.163Z,82.10
2018-07-31T01:10:06.367Z,82.20
2018-07-31T01:12:35.450Z,82.50
2018-07-31T01:15:04.762Z,82.90
2018-07-31T01:17:33.776Z,83.10
2018-07-31T01:20:02.859Z,83.20
2018-07-31T01:22:32.061Z,83.50
2018-07-31T01:25:01.265Z,83.70
2018-07-31T01:27:30.286Z,83.90
2018-07-31T01:29:59.339Z,84.30
2018-07-31T01:32:28.342Z,84.50
2018-07-31T01:34:57.350Z,84.80
2018-07-31T01:37:26.352Z,84.80
2018-07-31T01:39:55.448Z,85.10
2018-07-31T01:42:25.366Z,85.40
2018-07-31T01:44:54.364Z,85.90
2018-07-31T01:47:23.365Z,85.90
2018-07-31T01:49:52.360Z,86.30
2018-07-31T01:52:21.499Z,86.50
2018-07-31T01:54:50.560Z,86.90
2018-07-31T01:57:19.654Z,87.00
2018-07-31T01:59:48.653Z,87.30
2018-07-31T02:02:17.756Z,87.70
2018-07-31T02:04:46.749Z,88.10
2018-07-31T02:07:16.747Z,88.20
2018-07-31T02:09:45.871Z,88.50
2018-07-31T02:12:14.971Z,88.70
2018-07-31T02:14:43.969Z,89.30
2018-07-31T02:17:13.116Z,89.70
2018-07-31T02:19:42.169Z,90.00
2018-07-31T02:22:11.133Z,90.00
2018-07-31T02:24:40.112Z,90.20
2018-07-31T02:27:10.381Z,90.40
2018-07-31T02:29:44.748Z,90.60
2018-07-31T02:32:14.008Z,90.70
2018-07-31T02:34:42.965Z,90.80
2018-07-31T02:37:12.069Z,91.00
2018-07-31T02:39:41.595Z,91.30
2018-07-31T02:42:10.714Z,91.20
2018-07-31T02:44:39.789Z,91.40
2018-07-31T02:47:09.527Z,91.40
2018-07-31T02:49:38.621Z,91.60
2018-07-31T02:52:08.333Z,91.90
2018-07-31T02:54:37.531Z,92.10
2018-07-31T02:57:06.652Z,92.20
2018-07-31T02:59:35.742Z,92.60
2018-07-31T03:02:04.745Z,92.60
2018-07-31T03:04:33.731Z,92.90
2018-07-31T03:07:02.848Z,93.10
2018-07-31T03:09:31.927Z,93.40
2018-07-31T03:12:00.928Z,93.60
2018-07-31T03:14:30.126Z,93.70
2018-07-31T03:16:59.224Z,94.00
2018-07-31T03:19:28.207Z,94.30
2018-07-31T03:21:57.328Z,94.50
2018-07-31T03:24:26.305Z,95.10
2018-07-31T03:26:55.521Z,95.30
2018-07-31T03:29:25.486Z,95.50
2018-07-31T03:31:55.984Z,95.90
2018-07-31T03:34:25.375Z,96.00
2018-07-31T03:36:54.576Z,96.30
2018-07-31T03:39:24.345Z,96.70
2018-07-31T03:41:53.701Z,97.00
2018-07-31T03:44:22.716Z,97.40
2018-07-31T03:46:51.820Z,97.50
2018-07-31T03:49:20.913Z,97.50
2018-07-31T03:51:50.098Z,97.80
2018-07-31T03:54:19.451Z,98.30
2018-07-31T03:56:48.603Z,98.70
2018-07-31T03:59:17.700Z,98.80
2018-07-31T04:01:46.800Z,98.80
2018-07-31T04:04:15.899Z,99.30
2018-07-31T04:06:44.915Z,99.20
2018-07-31T04:09:14.820Z,99.60
2018-07-31T04:11:43.816Z,99.30
2018-07-31T04:14:13.113Z,99.40
2018-07-31T04:16:42.214Z,99.50
2018-07-31T04:19:11.405Z,99.60
2018-07-31T04:21:40.380Z,99.60
2018-07-31T04:24:09.519Z,99.80
2018-07-31T04:26:38.612Z,99.90
2018-07-31T04:29:07.712Z,99.80
2018-07-31T04:31:37.219Z,99.80
2018-07-31T04:34:06.330Z,99.90
2018-07-31T04:36:35.768Z,99.80
2018-07-31T04:39:08.162Z,99.80
2018-07-31T04:41:37.304Z,99.90
2018-07-31T04:44:06.592Z,99.70
2018-07-31T04:46:35.702Z,99.80
2018-07-31T04:49:05.109Z,99.90
2018-07-31T04:51:34.235Z,99.90
2018-07-31T04:54:03.411Z,99.90
2018-07-31T04:56:32.529Z,99.90
2018-07-31T04:59:01.603Z,99.90
2018-07-31T05:01:30.607Z,99.90
2018-07-31T05:03:59.718Z,99.90
2018-07-31T05:06:29.317Z,99.90
2018-07-31T05:08:58.312Z,99.90
2018-07-31T05:11:27.382Z,99.90
2018-07-31T05:13:56.512Z,99.90
2018-07-31T05:16:25.485Z,99.70
2018-07-31T05:21:23.084Z,98.30
2018-07-31T05:23:52.256Z,97.20
2018-07-31T05:26:21.292Z,97.00
2018-07-31T05:28:50.351Z,97.20
2018-07-31T05:31:19.529Z,96.40
2018-07-31T05:33:48.892Z,95.90
2018-07-31T05:36:18.003Z,95.60
2018-07-31T05:38:47.012Z,95.10
2018-07-31T05:41:16.195Z,94.30
2018-07-31T05:43:45.402Z,94.40
2018-07-31T05:46:14.515Z,94.10
2018-07-31T05:48:43.589Z,93.70
2018-07-31T05:51:12.900Z,93.30
2018-07-31T05:53:42.000Z,93.30
2018-07-31T05:56:10.988Z,92.80
2018-07-31T05:58:40.083Z,92.50
2018-07-31T06:01:09.065Z,91.80
2018-07-31T06:06:07.087Z,90.10
2018-07-31T06:08:36.308Z,89.90
2018-07-31T06:11:06.007Z,87.70
2018-07-31T06:13:35.508Z,86.70
2018-07-31T06:16:04.718Z,84.60
2018-07-31T06:18:33.811Z,83.80
2018-07-31T06:21:02.996Z,83.30
2018-07-31T06:23:32.000Z,82.40
2018-07-31T06:26:00.980Z,80.40
2018-07-31T06:30:58.897Z,76.00
2018-07-31T06:33:28.004Z,75.10
2018-07-31T06:35:57.200Z,75.90
2018-07-31T06:38:26.299Z,75.50
2018-07-31T06:40:55.408Z,74.40
2018-07-31T06:43:24.521Z,74.20
2018-07-31T06:45:53.706Z,73.20
2018-07-31T06:48:22.824Z,71.40
2018-07-31T06:50:51.912Z,70.70
2018-07-31T06:53:21.012Z,69.20
2018-07-31T06:55:50.107Z,68.00
2018-07-31T06:58:19.304Z,67.70
2018-07-31T07:00:48.381Z,66.90
2018-07-31T07:03:17.500Z,64.90
2018-07-31T07:05:46.520Z,63.80
2018-07-31T07:08:15.694Z,63.50
2018-07-31T07:10:44.644Z,62.90
2018-07-31T07:13:13.895Z,62.90
2018-07-31T07:15:42.895Z,62.90
2018-07-31T07:18:11.885Z,61.30
2018-07-31T07:20:40.982Z,59.30
2018-07-31T07:23:09.995Z,58.40
2018-07-31T07:25:38.939Z,58.20
2018-07-31T07:28:08.000Z,57.50
2018-07-31T07:30:37.075Z,56.30
2018-07-31T07:33:06.424Z,55.60
2018-07-31T07:35:35.787Z,54.50
2018-07-31T07:38:04.925Z,53.30
2018-07-31T07:40:34.071Z,52.60
2018-07-31T07:45:31.777Z,52.10
2018-07-31T07:48:00.976Z,51.60
2018-07-31T07:50:30.050Z,51.70
2018-07-31T07:52:59.033Z,51.40
2018-07-31T07:55:28.282Z,51.20
2018-07-31T07:57:57.301Z,51.00
2018-07-31T08:00:26.465Z,50.70
2018-07-31T08:02:55.589Z,50.20
2018-07-31T08:05:25.240Z,49.00
2018-07-31T08:07:54.281Z,48.00
2018-07-31T08:10:23.483Z,46.30
2018-07-31T08:12:52.513Z,45.00
2018-07-31T08:15:21.595Z,45.20
2018-07-31T08:17:50.683Z,44.40
2018-07-31T08:20:19.811Z,45.00
2018-07-31T08:22:49.663Z,43.40
2018-07-31T08:25:18.692Z,42.00
2018-07-31T08:27:48.322Z,42.00
2018-07-31T08:30:17.405Z,41.80
2018-07-31T08:32:46.492Z,42.40
2018-07-31T08:35:15.603Z,40.50
2018-07-31T08:37:44.743Z,38.50
2018-07-31T08:40:13.800Z,38.80
2018-07-31T08:42:42.915Z,39.70
2018-07-31T08:45:11.991Z,38.10
2018-07-31T08:50:09.704Z,37.80
2018-07-31T08:52:38.782Z,36.20
2018-07-31T08:55:08.497Z,36.30
2018-07-31T08:57:37.492Z,37.10
2018-07-31T09:00:08.028Z,37.70
2018-07-31T09:02:37.012Z,36.80
2018-07-31T09:05:06.053Z,36.60
2018-07-31T09:07:35.529Z,35.80
2018-07-31T09:10:05.264Z,35.00
2018-07-31T09:12:34.371Z,35.60
2018-07-31T09:15:03.449Z,35.90
2018-07-31T09:17:32.470Z,36.00
2018-07-31T09:20:01.640Z,35.30
2018-07-31T09:22:30.841Z,34.30
2018-07-31T09:25:00.553Z,33.80
2018-07-31T09:27:29.653Z,34.00
2018-07-31T09:29:58.680Z,33.50
2018-07-31T09:33:34.826Z,34.70
2018-07-31T09:36:04.494Z,34.50
2018-07-31T09:38:33.692Z,33.90
2018-07-31T09:41:02.803Z,33.10
2018-07-31T09:43:32.441Z,32.30
2018-07-31T09:46:01.604Z,31.80
2018-07-31T09:48:30.688Z,32.00
2018-07-31T09:50:59.809Z,32.30
2018-07-31T09:53:29.008Z,32.10
2018-07-31T09:55:58.145Z,32.00
2018-07-31T09:58:33.975Z,32.70
2018-07-31T10:01:08.404Z,32.20
2018-07-31T10:03:37.476Z,32.70
2018-07-31T10:06:06.805Z,34.40
2018-07-31T10:08:35.894Z,34.50
2018-07-31T10:11:05.186Z,34.60
2018-07-31T10:13:34.280Z,33.30
2018-07-31T10:16:04.081Z,33.30
2018-07-31T10:18:33.142Z,34.00
2018-07-31T10:21:02.239Z,35.00
2018-07-31T10:23:31.318Z,34.10
2018-07-31T10:26:00.981Z,33.80
2018-07-31T10:28:30.105Z,33.40
2018-07-31T10:30:59.276Z,33.60
2018-07-31T10:33:28.950Z,32.20
2018-07-31T10:35:58.426Z,32.70
2018-07-31T10:38:27.627Z,32.70
2018-07-31T10:40:56.728Z,32.00
2018-07-31T10:43:25.832Z,31.70
2018-07-31T10:45:54.906Z,32.00
2018-07-31T10:48:24.026Z,31.60
2018-07-31T10:50:53.021Z,31.40
2018-07-31T10:53:22.159Z,31.40
2018-07-31T10:55:52.107Z,31.00
2018-07-31T10:58:21.325Z,31.40
2018-07-31T11:00:50.411Z,31.10
2018-07-31T11:03:19.457Z,31.80
2018-07-31T11:05:48.540Z,34.00
2018-07-31T11:08:17.747Z,35.60
2018-07-31T11:10:47.470Z,35.10
2018-07-31T11:13:16.592Z,34.10
2018-07-31T11:15:46.063Z,33.50
2018-07-31T11:18:15.065Z,33.10
2018-07-31T11:20:44.695Z,33.10
2018-07-31T11:23:13.674Z,33.20
2018-07-31T11:25:42.851Z,32.40
2018-07-31T11:28:11.878Z,31.00
2018-07-31T11:30:40.867Z,30.70
2018-07-31T11:33:09.978Z,31.40
2018-07-31T11:35:39.064Z,30.70
2018-07-31T11:38:08.357Z,30.90
2018-07-31T11:40:37.471Z,31.60
2018-07-31T11:43:07.178Z,32.00
2018-07-31T11:45:36.155Z,32.80
2018-07-31T11:48:05.276Z,32.20
2018-07-31T11:50:34.294Z,32.20
2018-07-31T11:53:03.387Z,31.90
2018-07-31T11:55:32.404Z,32.30
2018-07-31T11:58:02.401Z,32.80
2018-07-31T12:00:31.638Z,32.20
2018-07-31T12:03:00.688Z,31.70
2018-07-31T12:05:29.946Z,32.20
2018-07-31T12:07:59.222Z,32.00
2018-07-31T12:10:28.708Z,32.20
2018-07-31T12:12:57.904Z,32.80
2018-07-31T12:15:27.329Z,33.90
2018-07-31T12:17:57.274Z,35.00
2018-07-31T12:20:26.279Z,34.80
2018-07-31T12:22:55.264Z,33.20
2018-07-31T12:25:24.285Z,33.70
2018-07-31T12:27:53.341Z,33.30
2018-07-31T12:30:22.380Z,35.00
2018-07-31T12:35:20.025Z,34.10
2018-07-31T12:37:49.082Z,33.70
2018-07-31T12:40:18.204Z,33.60
2018-07-31T12:42:47.229Z,33.80
2018-07-31T12:45:16.314Z,34.50
2018-07-31T12:47:45.368Z,34.60
2018-07-31T12:50:14.520Z,35.30
2018-07-31T12:52:43.697Z,35.20
2018-07-31T12:55:12.781Z,35.60
2018-07-31T12:57:41.879Z,35.80
2018-07-31T13:00:10.938Z,33.50
2018-07-31T13:02:40.100Z,31.50
2018-07-31T13:05:09.450Z,31.10
2018-07-31T13:07:38.498Z,31.60
2018-07-31T13:10:07.599Z,32.80
2018-07-31T13:12:36.800Z,32.90
2018-07-31T13:15:06.105Z,32.10
2018-07-31T13:17:35.204Z,31.50
2018-07-31T13:20:04.475Z,33.30
2018-07-31T13:22:33.730Z,33.50
2018-07-31T13:25:02.816Z,33.30
2018-07-31T13:27:33.032Z,33.30
2018-07-31T13:30:02.071Z,34.20
2018-07-31T13:32:31.062Z,34.50
2018-07-31T13:35:00.226Z,34.60
2018-07-31T13:37:29.825Z,34.30
2018-07-31T13:39:58.944Z,34.60
2018-07-31T13:42:28.040Z,35.00
2018-07-31T13:44:57.449Z,34.40
2018-07-31T13:47:26.851Z,34.10
2018-07-31T13:49:55.977Z,33.50
2018-07-31T13:52:25.257Z,33.70
2018-07-31T13:54:54.392Z,34.00
2018-07-31T13:57:23.437Z,33.00
2018-07-31T14:02:21.082Z,33.10
2018-07-31T14:04:50.138Z,33.80
2018-07-31T14:07:19.157Z,33.50
2018-07-31T14:09:49.095Z,34.00
2018-07-31T14:12:18.251Z,34.00
2018-07-31T14:14:47.995Z,35.30
2018-07-31T14:17:17.175Z,35.80
2018-07-31T14:19:46.192Z,36.70
2018-07-31T14:22:15.363Z,36.80
2018-07-31T14:24:44.514Z,37.20
2018-07-31T14:27:13.681Z,37.10
2018-07-31T14:29:42.922Z,37.00
2018-07-31T14:32:11.977Z,37.10
2018-07-31T14:34:40.997Z,37.90
2018-07-31T14:37:09.993Z,38.00
2018-07-31T14:39:39.056Z,38.50
2018-07-31T14:42:08.671Z,38.50
2018-07-31T14:44:37.872Z,38.70
2018-07-31T14:47:07.074Z,39.70
2018-07-31T14:49:36.071Z,39.10
2018-07-31T14:52:05.151Z,39.20
2018-07-31T14:54:34.271Z,39.00
2018-07-31T14:57:03.251Z,38.60
2018-07-31T14:59:32.255Z,38.40
2018-07-31T15:02:02.596Z,38.70
2018-07-31T15:04:32.129Z,39.30
2018-07-31T15:07:01.948Z,39.60
2018-07-31T15:09:30.908Z,40.00
2018-07-31T15:11:59.954Z,40.60
2018-07-31T15:14:29.114Z,41.40
2018-07-31T15:16:58.317Z,41.30
2018-07-31T15:19:27.311Z,40.80
2018-07-31T15:21:56.435Z,40.30
2018-07-31T15:24:25.440Z,40.20
2018-07-31T15:26:54.536Z,39.40
2018-07-31T15:29:23.605Z,39.30
2018-07-31T15:31:53.267Z,39.70
2018-07-31T15:34:22.296Z,40.50
2018-07-31T15:36:51.518Z,40.90
2018-07-31T15:39:24.982Z,42.10
2018-07-31T15:41:54.420Z,41.90
2018-07-31T15:44:23.432Z,41.10
2018-07-31T15:46:52.516Z,41.40
2018-07-31T15:49:21.819Z,42.40
2018-07-31T15:51:51.374Z,42.60
2018-07-31T15:54:20.635Z,43.30
2018-07-31T15:56:49.732Z,43.30
2018-07-31T15:59:19.456Z,43.40
2018-07-31T16:01:48.445Z,43.60
2018-07-31T16:04:17.529Z,44.40
2018-07-31T16:06:46.543Z,44.20
2018-07-31T16:09:15.536Z,44.40
2018-07-31T16:11:45.266Z,44.50
2018-07-31T16:14:14.351Z,44.30
2018-07-31T16:16:43.479Z,44.80
2018-07-31T16:19:12.498Z,45.00
2018-07-31T16:21:41.509Z,45.10
2018-07-31T16:24:10.852Z,45.20
2018-07-31T16:26:47.320Z,45.60
2018-07-31T16:29:16.378Z,44.20
2018-07-31T16:31:45.514Z,43.10
2018-07-31T16:34:14.611Z,43.30
2018-07-31T16:36:43.717Z,43.40
2018-07-31T16:41:42.129Z,43.30
2018-07-31T16:44:12.853Z,43.50
2018-07-31T16:46:41.968Z,42.90
2018-07-31T16:49:10.952Z,43.00
2018-07-31T16:51:40.458Z,43.10
2018-07-31T16:54:09.552Z,43.20
2018-07-31T16:56:38.600Z,43.60
2018-07-31T16:59:07.786Z,44.10
2018-07-31T17:01:37.464Z,44.60
2018-07-31T17:04:06.560Z,45.00
2018-07-31T17:06:35.661Z,45.40
2018-07-31T17:09:07.015Z,45.40
2018-07-31T17:11:36.147Z,45.70
2018-07-31T17:14:05.257Z,46.40
2018-07-31T17:16:34.426Z,46.80
2018-07-31T17:19:03.620Z,46.70
2018-07-31T17:21:34.116Z,46.70
2018-07-31T17:24:03.170Z,47.00
2018-07-31T17:26:32.969Z,47.10
2018-07-31T17:29:02.010Z,47.40
2018-07-31T17:31:31.057Z,47.60
2018-07-31T17:34:01.286Z,47.70
2018-07-31T17:36:30.292Z,48.30
2018-07-31T17:38:59.384Z,47.80
2018-07-31T17:41:28.457Z,47.40
2018-07-31T17:43:58.205Z,48.40
2018-07-31T17:46:27.324Z,48.60
2018-07-31T17:48:56.500Z,48.70
2018-07-31T17:51:25.594Z,48.90
2018-07-31T17:53:54.566Z,49.20
2018-07-31T17:58:52.385Z,49.30
2018-07-31T18:01:21.689Z,49.60
2018-07-31T18:03:50.805Z,49.60
2018-07-31T18:06:19.886Z,49.90
2018-07-31T18:08:49.089Z,50.30
2018-07-31T18:11:18.113Z,50.00
2018-07-31T18:13:47.287Z,50.20
2018-07-31T18:16:16.301Z,50.30
2018-07-31T18:18:45.318Z,50.60
2018-07-31T18:21:14.583Z,50.70
2018-07-31T18:23:43.860Z,51.00
2018-07-31T18:26:12.986Z,51.30
2018-07-31T18:28:42.121Z,50.90
2018-07-31T18:31:11.496Z,51.00
2018-07-31T18:33:40.592Z,51.30
2018-07-31T18:36:09.576Z,51.60
2018-07-31T18:43:36.654Z,51.40
2018-07-31T18:46:05.959Z,51.40
2018-07-31T18:48:35.078Z,51.50
2018-07-31T18:51:04.189Z,51.60
2018-07-31T18:53:33.174Z,51.70
2018-07-31T18:56:02.207Z,52.10
2018-07-31T18:58:31.519Z,52.50
2018-07-31T19:01:00.632Z,52.40
2018-07-31T19:03:30.293Z,52.80
2018-07-31T19:05:59.705Z,52.90
2018-07-31T19:08:29.319Z,53.00
2018-07-31T19:10:58.315Z,53.20
2018-07-31T19:13:27.397Z,53.50
2018-07-31T19:15:56.395Z,53.90
2018-07-31T19:20:54.592Z,54.50
2018-07-31T19:23:23.753Z,54.40
2018-07-31T19:25:52.747Z,54.70
2018-07-31T19:28:22.540Z,54.60
2018-07-31T19:30:51.613Z,55.10
2018-07-31T19:33:20.644Z,55.70
2018-07-31T19:35:49.732Z,55.80
2018-07-31T19:38:18.859Z,55.80
2018-07-31T19:40:50.016Z,56.10
2018-07-31T19:43:19.002Z,56.20
2018-07-31T19:45:47.984Z,56.30
2018-07-31T19:48:16.977Z,56.60
2018-07-31T19:50:46.058Z,57.30
2018-07-31T19:53:15.147Z,58.00
2018-07-31T19:55:44.143Z,59.10
2018-07-31T19:58:13.160Z,60.70
2018-07-31T20:00:44.119Z,62.20
2018-07-31T20:03:13.226Z,63.00
2018-07-31T20:05:42.231Z,64.60
2018-07-31T20:08:11.868Z,66.10
2018-07-31T20:10:40.916Z,67.80
2018-07-31T20:13:09.910Z,69.80
2018-07-31T20:15:38.985Z,71.60
2018-07-31T20:18:08.126Z,73.40
2018-07-31T20:20:37.596Z,75.40
2018-07-31T20:23:06.869Z,77.40
2018-07-31T20:25:35.893Z,79.10
2018-07-31T20:28:05.104Z,81.00
2018-07-31T20:30:34.210Z,82.80
2018-07-31T20:33:03.190Z,85.10
2018-07-31T20:35:32.318Z,87.40
2018-07-31T20:38:01.476Z,89.80
2018-07-31T20:40:30.480Z,91.00
2018-07-31T20:45:28.693Z,92.90
2018-07-31T20:47:57.710Z,93.90
2018-07-31T20:50:27.099Z,94.80
2018-07-31T20:52:56.286Z,95.50
2018-07-31T20:55:25.303Z,96.20
2018-07-31T20:57:54.390Z,96.80
2018-07-31T21:00:23.505Z,97.30
2018-07-31T21:02:52.622Z,97.80
2018-07-31T21:05:21.577Z,98.10
2018-07-31T21:07:51.076Z,98.70
2018-07-31T21:10:20.153Z,99.10
2018-07-31T21:12:50.169Z,99.30
2018-07-31T21:15:20.243Z,99.50
2018-07-31T21:17:49.217Z,99.80
2018-07-31T21:20:18.345Z,99.90
2018-07-31T21:22:47.439Z,99.90
2018-07-31T21:25:17.138Z,99.90
2018-07-31T21:27:46.240Z,99.90
2018-07-31T21:30:15.277Z,99.90
2018-07-31T21:32:44.264Z,99.90
2018-07-31T21:35:13.544Z,99.90
2018-07-31T21:37:43.659Z,99.90
2018-07-31T21:40:12.903Z,99.90
2018-07-31T21:42:41.992Z,99.90
2018-07-31T21:45:11.164Z,99.90
2018-07-31T21:47:40.152Z,99.90
2018-07-31T21:50:09.273Z,99.90
2018-07-31T21:52:38.362Z,99.90
2018-07-31T21:55:07.336Z,99.90
2018-07-31T21:57:36.379Z,99.90
2018-07-31T22:00:08.257Z,99.90
2018-07-31T22:02:37.322Z,99.90
2018-07-31T22:05:06.727Z,99.90
2018-07-31T22:07:35.789Z,99.90
2018-07-31T22:12:33.865Z,99.90
2018-07-31T22:15:03.053Z,99.90
2018-07-31T22:17:32.217Z,99.90
2018-07-31T22:20:01.348Z,99.90
2018-07-31T22:22:30.424Z,99.90
2018-07-31T22:24:59.525Z,99.90
2018-07-31T22:27:28.517Z,99.90
2018-07-31T22:29:57.586Z,99.90
2018-07-31T22:32:26.635Z,99.90
2018-07-31T22:34:56.531Z,99.90
2018-07-31T22:39:54.258Z,99.90
2018-07-31T22:42:23.311Z,99.90
2018-07-31T22:44:52.317Z,99.90
2018-07-31T22:47:21.714Z,99.90
2018-07-31T22:49:51.311Z,99.90
2018-07-31T22:52:20.542Z,99.90
2018-07-31T22:54:49.734Z,99.90
2018-07-31T22:57:20.184Z,99.90
2018-07-31T22:59:49.364Z,99.90
2018-07-31T23:02:18.578Z,99.90
2018-07-31T23:04:47.666Z,99.90
2018-07-31T23:07:16.857Z,99.90
2018-07-31T23:09:49.988Z,99.90
2018-07-31T23:12:19.360Z,99.90
2018-07-31T23:14:48.491Z,99.90
2018-07-31T23:17:17.662Z,99.90
2018-07-31T23:19:46.775Z,99.90
2018-07-31T23:22:25.886Z,99.90
2018-07-31T23:24:54.990Z,99.90
2018-07-31T23:27:23.969Z,99.90
2018-07-31T23:29:53.363Z,99.90
2018-07-31T23:32:22.473Z,99.90
2018-07-31T23:37:20.381Z,99.90
2018-07-31T23:39:49.685Z,99.90
2018-07-31T23:42:19.299Z,99.90
2018-07-31T23:44:48.601Z,99.90
2018-07-31T23:47:19.038Z,99.90
2018-07-31T23:49:48.100Z,99.90
2018-07-31T23:52:17.230Z,99.90
2018-07-31T23:54:46.212Z,99.90
2018-07-31T23:59:43.858Z,99.90
